Time;durP1;ratioP1;P1;durP2;ratioP2;P2;SDS_P1;SDS_P2;PMS_P1;PMS_P2;Temp;Humidity;BMP_temperature;BMP_pressure;BME280_temperature;BME280_humidity;BME280_pressure;Samples;Min_cycle;Max_cycle;Signal;HPM_P1;HPM_P2
2021/07/25 00:00:16;;;;;;;150.90;71.10;;;;;;;16.67;93.84;100936.56;6127987;23;20065;-83
2021/07/25 00:02:42;;;;;;;163.75;73.53;;;;;;;16.64;93.58;100933.94;6128146;23;20012;-81
2021/07/25 00:05:27;;;;;;;153.07;71.32;;;;;;;16.60;93.96;100924.22;6128427;23;20002;-82
2021/07/25 00:07:53;;;;;;;150.75;70.53;;;;;;;16.57;94.02;100930.44;6127622;23;20010;-84
2021/07/25 00:10:18;;;;;;;157.75;72.13;;;;;;;16.52;93.93;100927.84;6127924;23;20008;-80
2021/07/25 00:12:44;;;;;;;161.43;73.72;;;;;;;16.49;94.27;100926.97;6127984;23;20307;-79
2021/07/25 00:15:10;;;;;;;167.00;73.13;;;;;;;16.47;93.98;100929.63;6128088;23;20010;-81
2021/07/25 00:17:35;;;;;;;189.25;78.20;;;;;;;16.52;94.50;100929.59;6128525;23;20006;-83
2021/07/25 00:20:02;;;;;;;187.35;79.20;;;;;;;16.57;94.58;100926.91;6102246;23;20016;-80
2021/07/25 00:22:29;;;;;;;165.95;73.18;;;;;;;16.58;94.86;100931.34;6128244;23;20018;-81
2021/07/25 00:28:14;;;;;;;170.40;75.18;;;;;;;16.58;94.78;100920.72;6109106;23;20006;-78
2021/07/25 00:30:40;;;;;;;195.23;79.63;;;;;;;16.59;94.71;100927.78;6127704;23;20426;-80
2021/07/25 00:33:05;;;;;;;196.60;82.28;;;;;;;16.63;95.05;100924.19;6127600;23;20018;-79
2021/07/25 00:35:31;;;;;;;201.25;84.72;;;;;;;16.69;94.95;100934.78;6127298;23;20020;-83
2021/07/25 00:37:56;;;;;;;195.23;80.72;;;;;;;16.73;95.34;100941.84;6128078;23;20093;-79
2021/07/25 00:40:42;;;;;;;193.98;82.85;;;;;;;16.77;95.53;100937.41;6101562;23;20002;-78
2021/07/25 00:43:07;;;;;;;207.55;86.13;;;;;;;16.81;95.57;100931.16;6127850;23;20418;-80
2021/07/25 00:45:33;;;;;;;213.68;86.25;;;;;;;16.86;95.49;100935.56;6128444;23;20004;-83
2021/07/25 00:47:59;;;;;;;216.95;86.60;;;;;;;16.89;95.61;100939.06;6101928;23;20010;-83
2021/07/25 00:50:28;;;;;;;215.10;86.35;;;;;;;16.91;95.96;100935.53;6127976;23;20437;-79
2021/07/25 00:52:53;;;;;;;198.23;81.78;;;;;;;16.93;95.76;100927.53;6102065;23;20072;-81
2021/07/25 00:55:20;;;;;;;200.40;85.68;;;;;;;16.94;95.58;100929.31;6127886;23;19998;-82
2021/07/25 00:57:46;;;;;;;185.48;78.90;;;;;;;16.94;95.57;100924.00;6128957;23;20036;-84
2021/07/25 01:00:31;;;;;;;177.05;78.20;;;;;;;16.92;95.16;100917.84;6130498;23;20072;-84
2021/07/25 01:03:48;;;;;;;166.13;76.28;;;;;;;16.91;95.27;100924.03;6130128;23;20061;-82
2021/07/25 01:06:26;;;;;;;181.32;78.45;;;;;;;16.91;95.16;100910.75;6126366;23;20088;-83
2021/07/25 01:09:26;;;;;;;171.75;78.13;;;;;;;16.89;95.02;100905.44;6127805;23;20002;-79
2021/07/25 01:12:16;;;;;;;171.52;75.07;;;;;;;16.88;94.83;100908.09;6127675;23;20044;-85
2021/07/25 01:15:02;;;;;;;173.02;75.28;;;;;;;16.86;94.91;100914.28;6127744;23;20013;-79
2021/07/25 01:17:36;;;;;;;157.65;73.28;;;;;;;16.84;94.64;100913.41;6129621;23;20013;-82
2021/07/25 01:20:24;;;;;;;160.80;74.43;;;;;;;16.82;94.86;100903.69;6129921;23;20085;-81
2021/07/25 01:22:51;;;;;;;188.00;80.65;;;;;;;16.81;94.63;100897.50;6128166;23;20441;-81
2021/07/25 01:25:39;;;;;;;193.23;81.20;;;;;;;16.81;94.79;100902.81;6129833;23;20026;-83
2021/07/25 01:28:17;;;;;;;191.73;82.22;;;;;;;16.81;95.31;100900.16;6129418;23;20084;-82
2021/07/25 01:31:22;;;;;;;190.93;83.32;;;;;;;16.82;95.22;100909.91;6130047;23;20023;-82
2021/07/25 01:33:48;;;;;;;189.98;81.75;;;;;;;16.83;95.15;100906.34;6128159;23;20081;-82
2021/07/25 01:36:17;;;;;;;188.02;80.25;;;;;;;16.89;95.10;100905.44;6079560;23;20021;-79
2021/07/25 01:38:43;;;;;;;204.52;81.55;;;;;;;16.92;95.07;100904.53;6130338;23;20002;-83
2021/07/25 01:41:33;;;;;;;191.00;80.07;;;;;;;16.92;95.08;100904.53;6130189;23;20369;-79
2021/07/25 01:43:58;;;;;;;204.23;83.30;;;;;;;16.94;95.32;100908.06;6128764;23;20006;-79
2021/07/25 01:46:24;;;;;;;196.82;81.95;;;;;;;16.92;95.21;100915.16;6129510;23;20346;-82
2021/07/25 01:48:49;;;;;;;188.75;81.18;;;;;;;16.91;95.17;100913.41;6102917;23;20006;-83
2021/07/25 01:51:15;;;;;;;170.93;78.18;;;;;;;16.90;94.90;100916.94;6129385;23;20010;-81
2021/07/25 01:54:01;;;;;;;188.10;81.38;;;;;;;16.88;95.18;100913.41;6129270;23;20048;-78
2021/07/25 01:56:28;;;;;;;182.30;77.05;;;;;;;16.88;94.72;100921.38;6129420;23;20074;-81
2021/07/25 01:58:53;;;;;;;192.88;80.85;;;;;;;16.88;94.91;100918.72;6130018;23;19998;-78
2021/07/25 02:01:19;;;;;;;187.93;77.82;;;;;;;16.85;95.18;100915.19;6129715;23;20013;-80
2021/07/25 02:03:44;;;;;;;192.80;78.93;;;;;;;16.83;95.10;100906.34;6128509;23;20084;-81
2021/07/25 02:06:29;;;;;;;186.15;83.13;;;;;;;16.85;95.12;100907.19;6130473;23;20001;-82
2021/07/25 02:08:55;;;;;;;192.05;79.53;;;;;;;16.85;95.18;100904.53;6129214;23;20010;-81
2021/07/25 02:11:20;;;;;;;198.23;80.35;;;;;;;16.85;95.29;100898.34;6130108;23;20057;-82
2021/07/25 02:13:46;;;;;;;191.50;77.95;;;;;;;16.81;94.90;100894.84;6129637;23;20350;-78
2021/07/25 02:16:11;;;;;;;191.68;78.50;;;;;;;16.78;95.02;100894.88;6129921;23;20013;-79
2021/07/25 02:18:36;;;;;;;177.20;77.35;;;;;;;16.75;95.15;100894.00;6129241;23;20021;-80
2021/07/25 02:21:02;;;;;;;175.90;77.75;;;;;;;16.72;94.86;100892.25;6129484;23;20075;-80
2021/07/25 02:23:27;;;;;;;186.15;79.28;;;;;;;16.70;94.79;100894.06;6128856;23;20349;-79
2021/07/25 02:25:52;;;;;;;165.88;75.07;;;;;;;16.69;94.93;100889.63;6128658;23;20010;-79
2021/07/25 02:28:38;;;;;;;176.75;75.65;;;;;;;16.66;94.87;100879.91;6127888;23;20422;-82
2021/07/25 02:31:23;;;;;;;184.73;77.32;;;;;;;16.66;94.83;100881.69;6128092;23;20014;-80
2021/07/25 02:33:48;;;;;;;178.13;74.75;;;;;;;16.64;94.64;100879.03;6128817;23;20029;-80
2021/07/25 02:36:14;;;;;;;190.30;77.25;;;;;;;16.64;95.25;100872.84;6128334;23;20334;-85
2021/07/25 02:38:39;;;;;;;179.70;75.63;;;;;;;16.66;94.90;100871.06;6128535;23;20030;-81
2021/07/25 02:41:05;;;;;;;194.88;80.93;;;;;;;16.66;95.01;100876.38;6128775;23;20099;-81
2021/07/25 02:43:30;;;;;;;212.38;84.43;;;;;;;16.66;95.26;100868.41;6102509;23;20071;-78
2021/07/25 02:45:57;;;;;;;202.52;81.25;;;;;;;16.65;95.70;100866.63;6128924;23;20376;-82
2021/07/25 02:48:22;;;;;;;195.27;78.97;;;;;;;16.66;95.50;100860.44;6128943;23;20013;-80
2021/07/25 02:50:48;;;;;;;216.68;84.75;;;;;;;16.66;95.57;100866.63;6129120;23;20024;-79
2021/07/25 02:53:13;;;;;;;196.88;79.32;;;;;;;16.65;95.40;100853.34;6128248;23;20029;-81
2021/07/25 02:55:39;;;;;;;199.52;80.43;;;;;;;16.64;95.57;100851.56;6128643;23;20065;-82
2021/07/25 02:58:04;;;;;;;191.55;79.97;;;;;;;16.64;95.31;100843.59;6128856;23;20006;-81
2021/07/25 03:00:29;;;;;;;198.95;78.47;;;;;;;16.63;95.39;100841.84;6129123;23;20081;-78
2021/07/25 03:02:56;;;;;;;193.15;76.88;;;;;;;16.60;95.49;100850.72;6128724;23;20080;-80
2021/07/25 03:05:42;;;;;;;207.35;80.60;;;;;;;16.59;95.32;100850.72;6102956;23;20009;-84
2021/07/25 03:08:07;;;;;;;201.60;80.00;;;;;;;16.59;95.69;100853.38;6128280;23;20018;-81
2021/07/25 03:10:32;;;;;;;191.75;76.32;;;;;;;16.59;95.87;100848.06;6128599;23;20378;-80
2021/07/25 03:12:58;;;;;;;191.13;76.22;;;;;;;16.56;95.68;100841.00;6128752;23;20084;-78
2021/07/25 03:15:23;;;;;;;197.43;79.53;;;;;;;16.57;95.40;100857.84;6128402;23;20005;-81
2021/07/25 03:18:04;;;;;;;221.82;87.43;;;;;;;16.58;95.76;100870.25;6128397;23;20411;-82
2021/07/25 03:20:29;;;;;;;214.48;81.20;;;;;;;16.59;95.91;100869.31;6128183;23;20013;-77
2021/07/25 03:22:55;;;;;;;219.65;85.50;;;;;;;16.60;95.74;100864.00;6128628;23;20092;-79
2021/07/25 03:25:40;;;;;;;218.23;82.15;;;;;;;16.62;95.97;100869.31;6128889;23;20462;-80
2021/07/25 03:28:06;;;;;;;205.95;82.72;;;;;;;16.62;96.11;100872.84;6128139;23;20068;-80
2021/07/25 03:30:31;;;;;;;208.60;81.00;;;;;;;16.62;95.67;100877.28;6128047;23;20096;-79
2021/07/25 03:32:57;;;;;;;196.93;76.82;;;;;;;16.61;95.78;100873.72;6129154;23;20006;-83
2021/07/25 03:35:22;;;;;;;189.13;73.90;;;;;;;16.62;95.98;100875.50;6128520;23;20034;-79
2021/07/25 03:37:48;;;;;;;170.15;73.20;;;;;;;16.63;95.89;100871.97;6127807;23;20421;-81
2021/07/25 03:40:14;;;;;;;167.00;70.28;;;;;;;16.62;95.57;100869.31;6128823;23;20006;-80
2021/07/25 03:42:39;;;;;;;157.88;66.75;;;;;;;16.63;95.60;100871.06;6128596;23;20006;-79
2021/07/25 03:45:06;;;;;;;153.07;65.95;;;;;;;16.64;95.68;100862.19;6128153;23;20005;-82
2021/07/25 03:47:31;;;;;;;145.77;62.70;;;;;;;16.62;95.67;100861.34;6128457;23;20009;-81
2021/07/25 03:50:21;;;;;;;123.20;57.13;;;;;;;16.62;95.17;100853.38;6128555;23;20009;-79
2021/07/25 03:52:46;;;;;;;115.15;52.33;;;;;;;16.60;95.32;100853.38;6127682;23;20025;-82
2021/07/25 03:55:16;;;;;;;117.03;55.10;;;;;;;16.56;94.96;100848.97;6128152;23;20006;-79
2021/07/25 03:58:02;;;;;;;108.22;49.38;;;;;;;16.52;94.90;100848.16;6128024;23;20072;-80
2021/07/25 04:00:27;;;;;;;93.82;46.80;;;;;;;16.48;94.51;100851.72;6127876;23;20026;-83
2021/07/25 04:02:53;;;;;;;93.50;46.78;;;;;;;16.46;94.43;100840.22;6128551;23;20085;-79
2021/07/25 04:05:21;;;;;;;110.75;49.20;;;;;;;16.43;94.39;100842.91;6128056;23;20021;-78
2021/07/25 04:07:46;;;;;;;102.45;50.03;;;;;;;16.41;94.52;100836.69;6127975;23;20013;-83
2021/07/25 04:10:12;;;;;;;101.32;47.97;;;;;;;16.37;94.82;100837.63;6102274;23;20006;-81
2021/07/25 04:12:38;;;;;;;102.57;48.45;;;;;;;16.37;94.84;100836.75;6127741;23;20077;-82
2021/07/25 04:15:23;;;;;;;95.90;46.72;;;;;;;16.37;94.97;100837.63;6128123;23;20373;-80
2021/07/25 04:17:49;;;;;;;92.13;46.50;;;;;;;16.39;95.26;100849.13;6127271;23;20462;-79
2021/07/25 04:20:14;;;;;;;96.43;47.38;;;;;;;16.42;94.94;100846.44;6128074;23;20002;-76
2021/07/25 04:22:40;;;;;;;88.63;43.95;;;;;;;16.43;94.99;100842.91;6127471;23;20021;-80
2021/07/25 04:25:07;;;;;;;88.75;46.15;;;;;;;16.46;94.98;100826.06;6128106;23;20025;-79
2021/07/25 04:27:32;;;;;;;91.55;45.60;;;;;;;16.48;94.96;100838.44;6128161;23;20017;-78
2021/07/25 04:29:58;;;;;;;94.35;47.53;;;;;;;16.52;95.04;100837.50;6127617;23;20010;-76
2021/07/25 04:32:24;;;;;;;89.72;44.17;;;;;;;16.54;95.35;100842.81;6127905;23;20064;-79
2021/07/25 04:35:10;;;;;;;81.55;40.88;;;;;;;16.56;95.25;100842.78;6127857;23;20009;-78
2021/07/25 04:37:38;;;;;;;74.60;40.22;;;;;;;16.60;94.99;100845.41;6127675;23;20025;-81
2021/07/25 04:40:04;;;;;;;70.13;38.03;;;;;;;16.64;94.93;100838.28;6102165;23;20341;-81
2021/07/25 04:42:35;;;;;;;61.90;35.55;;;;;;;16.67;94.48;100843.56;6127092;23;20037;-81
2021/07/25 04:45:05;;;;;;;62.85;34.83;;;;;;;16.71;94.61;100842.66;6126803;23;20034;-79
2021/07/25 04:47:54;;;;;;;46.83;28.45;;;;;;;16.74;94.20;100840.00;6127296;23;20061;-78
2021/07/25 04:50:41;;;;;;;44.30;26.60;;;;;;;16.80;94.03;100831.94;6127066;23;20018;-77
2021/07/25 04:53:33;;;;;;;38.88;25.70;;;;;;;16.86;93.29;100831.91;6128402;23;20006;-77
2021/07/25 04:56:19;;;;;;;42.75;24.52;;;;;;;16.96;93.43;100839.81;6126163;23;20056;-81
2021/07/25 04:58:49;;;;;;;45.50;26.85;;;;;;;16.98;93.33;100848.66;6128643;23;20016;-82
2021/07/25 05:01:18;;;;;;;46.33;26.40;;;;;;;17.00;93.70;100844.22;6127970;23;20005;-77
2021/07/25 05:03:45;;;;;;;41.65;24.08;;;;;;;17.03;93.47;100844.16;6127629;23;20369;-80
2021/07/25 05:06:14;;;;;;;35.67;21.73;;;;;;;17.08;92.44;100838.78;6127224;23;20014;-78
2021/07/25 05:08:41;;;;;;;27.58;18.48;;;;;;;17.12;91.76;100836.09;6127936;23;20006;-81
2021/07/25 05:11:31;;;;;;;25.63;18.17;;;;;;;17.18;90.80;100833.34;6127488;23;20064;-79
2021/07/25 05:14:20;;;;;;;27.95;16.88;;;;;;;17.24;90.79;100837.75;6125917;23;20030;-76
2021/07/25 05:17:14;;;;;;;27.52;16.17;;;;;;;17.28;90.54;100849.22;6128378;23;20064;-77
2021/07/25 05:19:48;;;;;;;29.30;16.63;;;;;;;17.31;90.44;100850.06;6127480;23;20029;-79
2021/07/25 05:22:26;;;;;;;24.27;16.15;;;;;;;17.31;90.53;100855.41;6128257;23;20346;-80
2021/07/25 05:25:15;;;;;;;23.48;15.38;;;;;;;17.36;90.22;100847.34;6127481;23;20013;-78
2021/07/25 05:27:44;;;;;;;22.30;13.82;;;;;;;17.41;89.37;100855.28;6128346;23;20009;-79
2021/07/25 05:30:13;;;;;;;19.80;13.45;;;;;;;17.46;89.69;100853.47;6127687;23;20014;-80
2021/07/25 05:32:38;;;;;;;16.58;11.90;;;;;;;17.50;89.13;100856.06;6127757;23;20014;-82
2021/07/25 05:35:04;;;;;;;16.27;12.25;;;;;;;17.62;89.33;100848.81;6127281;23;20012;-76
2021/07/25 05:37:30;;;;;;;20.63;11.77;;;;;;;17.68;89.17;100859.41;6127439;23;20009;-80
2021/07/25 05:39:55;;;;;;;17.13;11.93;;;;;;;17.76;88.24;100862.84;6101185;23;20367;-78
2021/07/25 05:42:21;;;;;;;18.25;12.13;;;;;;;17.84;87.64;100855.63;6126640;23;20392;-78
2021/07/25 05:44:46;;;;;;;17.63;12.18;;;;;;;17.91;87.93;100858.22;6127441;23;20014;-78
2021/07/25 05:47:12;;;;;;;18.98;12.23;;;;;;;17.94;87.76;100860.88;6127652;23;20090;-80
2021/07/25 05:49:37;;;;;;;16.52;11.38;;;;;;;18.01;86.90;100863.44;6128132;23;20101;-78
2021/07/25 05:52:03;;;;;;;15.85;11.68;;;;;;;18.10;86.24;100857.09;6127821;23;20005;-79
2021/07/25 05:54:28;;;;;;;15.27;10.52;;;;;;;18.17;86.27;100858.75;6127710;23;20496;-77
2021/07/25 05:56:54;;;;;;;19.30;10.68;;;;;;;18.26;86.36;100863.06;6127988;23;20018;-79
2021/07/25 05:59:20;;;;;;;13.95;11.18;;;;;;;18.32;85.39;100854.09;6126903;23;20418;-77
2021/07/25 06:01:45;;;;;;;16.35;10.65;;;;;;;18.40;85.58;100848.66;6128017;23;20425;-78
2021/07/25 06:04:30;;;;;;;17.42;10.48;;;;;;;18.48;84.33;100847.63;6129547;23;20002;-79
2021/07/25 06:06:56;;;;;;;16.55;11.18;;;;;;;18.57;84.77;100857.28;6129715;23;20063;-78
2021/07/25 06:09:23;;;;;;;16.35;11.55;;;;;;;18.66;85.28;100853.56;6129291;23;20001;-77
2021/07/25 06:11:49;;;;;;;18.17;11.32;;;;;;;18.78;84.51;100849.81;6129287;23;20060;-77
2021/07/25 06:14:15;;;;;;;16.98;11.20;;;;;;;18.86;83.89;100848.75;6128850;23;20014;-79
2021/07/25 06:16:40;;;;;;;18.45;12.18;;;;;;;18.97;83.90;100855.72;6128652;23;20005;-79
2021/07/25 06:19:05;;;;;;;14.70;11.57;;;;;;;19.10;83.73;100857.25;6128576;23;20480;-81
2021/07/25 06:21:31;;;;;;;21.23;12.68;;;;;;;19.28;83.28;100855.16;6128773;23;20326;-80
2021/07/25 06:23:56;;;;;;;21.00;12.73;;;;;;;19.34;82.06;100860.34;6128723;23;20097;-80
2021/07/25 06:26:43;;;;;;;18.13;12.00;;;;;;;19.51;81.54;100857.38;6128504;23;20022;-81
2021/07/25 06:29:28;;;;;;;16.95;12.25;;;;;;;20.03;79.94;100850.91;6128666;23;20053;-80
2021/07/25 06:31:54;;;;;;;18.90;11.48;;;;;;;20.94;77.61;100845.19;6127939;23;20037;-78
2021/07/25 06:34:20;;;;;;;18.10;11.50;;;;;;;21.75;73.81;100842.97;6128360;23;20414;-79
2021/07/25 06:36:45;;;;;;;16.48;11.07;;;;;;;22.38;69.72;100828.50;6129188;23;20001;-80
2021/07/25 06:39:10;;;;;;;16.92;10.75;;;;;;;22.72;68.62;100827.38;6128666;23;20013;-79
2021/07/25 06:41:36;;;;;;;17.25;11.40;;;;;;;23.01;67.86;100827.28;6128182;23;20004;-81
2021/07/25 06:44:01;;;;;;;15.15;9.93;;;;;;;23.27;65.79;100822.81;6105305;23;20017;-79
2021/07/25 06:46:27;;;;;;;15.15;9.95;;;;;;;23.54;65.00;100821.75;6128583;23;20002;-81
2021/07/25 06:48:52;;;;;;;17.23;11.23;;;;;;;23.65;64.01;100828.53;6103315;23;20076;-80
2021/07/25 06:51:17;;;;;;;13.85;10.55;;;;;;;23.56;65.15;100825.28;6102989;23;20005;-81
2021/07/25 06:53:43;;;;;;;14.00;9.65;;;;;;;24.06;63.64;100818.00;6129035;23;20428;-79
2021/07/25 06:56:08;;;;;;;14.60;10.45;;;;;;;24.27;62.01;100818.06;6128870;23;20010;-82
2021/07/25 06:58:34;;;;;;;17.38;11.23;;;;;;;23.85;64.32;100825.09;6127977;23;20017;-81
2021/07/25 07:01:00;;;;;;;19.65;11.85;;;;;;;23.92;63.40;100820.38;6128828;23;19998;-81
2021/07/25 07:03:26;;;;;;;17.63;11.50;;;;;;;23.92;63.05;100820.38;6130344;23;20010;-78
2021/07/25 07:05:51;;;;;;;14.38;10.65;;;;;;;23.88;63.65;100823.16;6128688;23;19998;-80
2021/07/25 07:08:20;;;;;;;15.68;10.45;;;;;;;23.76;63.74;100826.31;6129300;23;20040;-78
2021/07/25 07:10:47;;;;;;;18.08;11.55;;;;;;;23.45;66.86;100835.53;6128121;23;20081;-79
2021/07/25 07:13:32;;;;;;;16.80;11.45;;;;;;;23.45;65.66;100835.53;6127903;23;20010;-78
2021/07/25 07:15:57;;;;;;;19.15;11.07;;;;;;;23.67;65.13;100832.03;6128095;23;20081;-76
2021/07/25 07:18:23;;;;;;;18.23;11.77;;;;;;;23.72;64.51;100830.06;6128732;23;20339;-79
2021/07/25 07:20:48;;;;;;;17.42;12.05;;;;;;;23.85;63.96;100835.84;6129016;23;20002;-80
2021/07/25 07:23:34;;;;;;;13.50;10.23;;;;;;;24.36;62.62;100826.66;6128148;23;20426;-79
2021/07/25 07:25:59;;;;;;;17.90;11.75;;;;;;;24.52;63.71;100832.25;6128408;23;20338;-79
2021/07/25 07:28:24;;;;;;;17.52;10.77;;;;;;;24.73;61.55;100833.19;6128357;23;20005;-81
2021/07/25 07:31:10;;;;;;;16.35;10.77;;;;;;;24.73;61.19;100824.25;6128858;23;20009;-77
2021/07/25 07:33:35;;;;;;;12.52;9.93;;;;;;;24.72;61.34;100827.88;6127613;23;20422;-77
2021/07/25 07:36:01;;;;;;;18.83;11.25;;;;;;;24.60;61.72;100833.75;6129194;23;20008;-80
2021/07/25 07:38:26;;;;;;;20.73;11.30;;;;;;;24.37;63.62;100838.28;6128259;23;20021;-80
2021/07/25 07:40:52;;;;;;;23.40;11.18;;;;;;;24.20;65.15;100842.53;6102625;23;20017;-79
2021/07/25 07:43:38;;;;;;;17.58;11.82;;;;;;;24.22;63.55;100846.00;6128313;23;20005;-80
2021/07/25 07:46:03;;;;;;;16.88;10.65;;;;;;;24.26;65.00;100846.78;6128027;23;20284;-83
2021/07/25 07:48:48;;;;;;;17.55;11.40;;;;;;;24.50;64.65;100850.28;6127824;23;20013;-79
2021/07/25 07:51:14;;;;;;;19.15;10.43;;;;;;;24.70;63.10;100851.28;6128689;23;20101;-81
2021/07/25 07:53:39;;;;;;;17.98;11.57;;;;;;;24.72;63.06;100849.41;6128334;23;20138;-80
2021/07/25 07:56:05;;;;;;;14.85;10.82;;;;;;;24.53;63.62;100855.50;6128507;23;20435;-79
2021/07/25 07:58:30;;;;;;;13.40;10.60;;;;;;;24.57;64.62;100853.59;6128492;23;20017;-82
2021/07/25 08:00:57;;;;;;;18.95;12.10;;;;;;;24.69;62.57;100839.66;6127755;23;20010;-80
2021/07/25 08:03:23;;;;;;;17.05;11.50;;;;;;;24.58;66.16;100850.81;6103021;23;20030;-80
2021/07/25 08:05:48;;;;;;;18.48;11.70;;;;;;;24.83;64.46;100844.44;6128866;23;20061;-80
2021/07/25 08:08:14;;;;;;;19.98;11.98;;;;;;;25.29;62.65;100835.28;6128201;23;20009;-81
2021/07/25 08:10:39;;;;;;;19.98;10.93;;;;;;;25.25;62.43;100832.69;6128125;23;20006;-81
2021/07/25 08:13:04;;;;;;;19.27;11.05;;;;;;;25.22;60.94;100834.69;6128060;23;20009;-80
2021/07/25 08:15:30;;;;;;;13.73;11.85;;;;;;;25.28;61.26;100836.22;6128541;23;20009;-80
2021/07/25 08:17:55;;;;;;;21.08;10.55;;;;;;;25.30;59.70;100839.69;6128295;23;20144;-83
2021/07/25 08:20:21;;;;;;;17.52;10.98;;;;;;;25.44;58.26;100831.91;6128051;23;20012;-81
2021/07/25 08:22:49;;;;;;;16.27;10.05;;;;;;;25.54;59.32;100838.63;6127624;23;20018;-80
2021/07/25 08:25:15;;;;;;;15.20;10.10;;;;;;;25.78;58.22;100838.41;6102716;23;20010;-83
2021/07/25 08:27:40;;;;;;;15.80;10.13;;;;;;;25.71;58.62;100835.13;6127919;23;20049;-79
2021/07/25 08:30:27;;;;;;;15.13;9.45;;;;;;;26.20;57.71;100837.31;6128477;23;20096;-76
2021/07/25 08:32:52;;;;;;;12.05;8.70;;;;;;;26.18;56.63;100844.63;6127968;23;20006;-83
2021/07/25 08:35:18;;;;;;;10.52;7.72;;;;;;;26.33;56.41;100836.72;6127839;23;20033;-81
2021/07/25 08:37:44;;;;;;;11.70;8.05;;;;;;;26.36;54.89;100836.59;6128340;23;20016;-82
2021/07/25 08:40:49;;;;;;;16.88;9.77;;;;;;;25.96;54.93;100843.88;6127761;23;20006;-82
2021/07/25 08:43:18;;;;;;;15.52;10.20;;;;;;;25.83;56.96;100854.34;6128020;23;20017;-81
2021/07/25 08:45:46;;;;;;;19.05;10.70;;;;;;;25.53;58.97;100858.44;6128519;23;20033;-83
2021/07/25 08:48:35;;;;;;;13.65;11.23;;;;;;;25.32;59.84;100857.53;6127603;23;20028;-83
2021/07/25 08:51:44;;;;;;;13.10;9.73;;;;;;;25.49;58.36;100854.13;6126714;23;20017;-82
2021/07/25 08:54:13;;;;;;;10.25;9.00;;;;;;;25.69;58.18;100853.22;6126011;23;20033;-82
2021/07/25 08:56:39;;;;;;;13.15;10.60;;;;;;;25.63;58.82;100858.00;6127403;23;20013;-83
2021/07/25 08:59:28;;;;;;;14.40;10.93;;;;;;;25.70;58.39;100854.94;6128523;23;20002;-80
2021/07/25 09:02:16;;;;;;;15.10;9.52;;;;;;;25.58;57.41;100861.78;6128341;23;20014;-83
2021/07/25 09:04:42;;;;;;;11.02;8.15;;;;;;;25.70;57.35;100852.25;6126335;23;20010;-82
2021/07/25 09:07:08;;;;;;;13.43;10.02;;;;;;;25.68;54.98;100847.88;6128098;23;20061;-81
2021/07/25 09:09:34;;;;;;;13.85;10.48;;;;;;;25.52;56.19;100856.66;6127880;23;20492;-81
2021/07/25 09:12:00;;;;;;;15.68;10.93;;;;;;;25.34;57.69;100869.16;6127745;23;20006;-83
2021/07/25 09:14:49;;;;;;;12.30;10.32;;;;;;;25.15;58.59;100873.56;6128677;23;20061;-83
2021/07/25 09:17:15;;;;;;;12.10;8.98;;;;;;;25.22;57.60;100869.69;6128295;23;20017;-78
2021/07/25 09:20:13;;;;;;;18.70;13.70;;;;;;;25.29;57.94;100867.59;6129601;23;20006;-80
2021/07/25 09:22:48;;;;;;;13.57;11.18;;;;;;;25.69;56.32;100865.78;6128190;23;20497;-81
2021/07/25 09:25:41;;;;;;;15.75;10.88;;;;;;;26.12;56.00;100871.88;6128137;23;20057;-81
2021/07/25 09:28:07;;;;;;;14.52;9.98;;;;;;;26.20;53.07;100861.59;6109483;23;20057;-81
2021/07/25 09:30:33;;;;;;;15.57;11.07;;;;;;;26.16;53.95;100860.00;6128220;23;20429;-82
2021/07/25 09:33:33;;;;;;;13.30;9.02;;;;;;;26.06;56.87;100880.28;6128692;23;20061;-79
2021/07/25 09:36:11;;;;;;;13.40;7.65;;;;;;;26.00;57.41;100886.78;6127550;23;20002;-82
2021/07/25 09:38:37;;;;;;;14.65;9.70;;;;;;;26.18;54.99;100877.00;6129950;23;20002;-81
2021/07/25 09:41:37;;;;;;;11.00;8.20;;;;;;;26.75;54.04;100873.31;6130008;23;20067;-82
2021/07/25 09:44:25;;;;;;;18.40;9.68;;;;;;;27.13;53.80;100875.88;6129478;23;20089;-83
2021/07/25 09:46:54;;;;;;;11.68;9.20;;;;;;;27.19;50.90;100859.34;6129666;23;20025;-82
2021/07/25 09:49:20;;;;;;;10.15;8.50;;;;;;;26.98;52.75;100869.47;6130085;23;20002;-80
2021/07/25 09:51:47;;;;;;;12.13;8.15;;;;;;;27.80;50.14;100851.59;6130700;23;20002;-82
2021/07/25 09:54:12;;;;;;;11.63;8.48;;;;;;;28.74;47.66;100845.38;6103564;23;20006;-78
2021/07/25 09:56:38;;;;;;;11.95;8.27;;;;;;;29.20;45.18;100831.72;6130062;23;20014;-79
2021/07/25 09:59:23;;;;;;;9.73;6.50;;;;;;;29.77;43.13;100830.84;6130605;23;20010;-79
2021/07/25 10:01:55;;;;;;;8.95;7.53;;;;;;;29.32;45.06;100853.66;6123714;23;20013;-80
2021/07/25 10:04:23;;;;;;;22.73;15.88;;;;;;;28.58;50.34;100867.91;6132207;23;20009;-81
2021/07/25 10:06:54;;;;;;;26.17;15.77;;;;;;;28.52;52.17;100876.38;6131640;23;20010;-79
2021/07/25 10:09:21;;;;;;;23.77;16.40;;;;;;;28.75;51.16;100864.22;6130596;23;20014;-83
2021/07/25 10:11:55;;;;;;;21.27;17.73;;;;;;;28.22;51.18;100865.50;6103847;23;20096;-79
2021/07/25 10:14:43;;;;;;;27.05;16.23;;;;;;;28.81;48.75;100860.28;6129456;23;20006;-80
2021/07/25 10:17:09;;;;;;;21.55;17.15;;;;;;;28.18;51.93;100872.94;6129925;23;20010;-81
2021/07/25 10:19:58;;;;;;;19.75;15.98;;;;;;;28.01;54.21;100876.59;6129181;23;20064;-80
2021/07/25 10:22:33;;;;;;;25.50;18.27;;;;;;;28.33;50.59;100863.06;6128426;23;20061;-80
2021/07/25 10:25:38;;;;;;;23.95;17.90;;;;;;;27.79;52.22;100863.34;6130277;23;20010;-79
2021/07/25 10:28:23;;;;;;;23.15;14.45;;;;;;;28.39;51.70;100859.09;6130748;23;20010;-79
2021/07/25 10:30:50;;;;;;;25.40;16.83;;;;;;;28.50;50.64;100856.66;6128336;23;20013;-81
2021/07/25 10:33:36;;;;;;;24.00;19.02;;;;;;;28.32;52.78;100865.84;6102678;23;20093;-80
2021/07/25 10:36:03;;;;;;;23.25;18.40;;;;;;;27.87;53.42;100873.75;6128705;23;20036;-78
2021/07/25 10:38:28;;;;;;;22.67;17.42;;;;;;;27.99;51.64;100864.09;6128545;23;20101;-79
2021/07/25 10:40:55;;;;;;;27.17;18.88;;;;;;;27.55;53.86;100873.69;6129116;23;20417;-78
2021/07/25 10:43:25;;;;;;;25.08;20.70;;;;;;;26.78;55.19;100874.97;6128698;23;20006;-80
2021/07/25 10:46:20;;;;;;;34.58;20.83;;;;;;;27.38;55.49;100871.91;6129081;23;20067;-78
2021/07/25 10:49:03;;;;;;;27.23;20.52;;;;;;;27.99;52.36;100864.09;6102194;23;20006;-80
2021/07/25 10:51:29;;;;;;;27.95;20.20;;;;;;;28.32;51.00;100860.44;6128606;23;20012;-79
2021/07/25 10:54:23;;;;;;;30.23;21.45;;;;;;;27.45;53.51;100876.00;6128873;23;20018;-79
2021/07/25 10:57:00;;;;;;;;;;;;;;;27.04;53.91;100881.75;6129075;23;20010;-80
2021/07/25 10:59:38;;;;;;;35.08;22.67;;;;;;;26.38;55.03;100883.22;6129140;23;20020;-81
2021/07/25 11:02:26;;;;;;;35.30;23.70;;;;;;;25.46;57.70;100889.31;6128616;23;20107;-82
2021/07/25 11:04:54;;;;;;;34.13;22.90;;;;;;;24.94;61.33;100897.81;6128658;23;20010;-79
2021/07/25 11:07:23;;;;;;;33.40;23.17;;;;;;;24.83;61.34;100895.56;6128652;23;20033;-78
2021/07/25 11:10:00;;;;;;;32.90;24.83;;;;;;;24.96;60.23;100890.56;6128580;23;20037;-79
2021/07/25 11:12:48;;;;;;;34.38;25.27;;;;;;;24.86;59.70;100883.78;6128686;23;20005;-80
2021/07/25 11:15:31;;;;;;;35.53;24.98;;;;;;;24.63;62.10;100890.16;6128096;23;20422;-80
2021/07/25 11:17:57;;;;;;;33.75;24.13;;;;;;;25.39;59.00;100882.41;6128558;23;20006;-79
2021/07/25 11:21:07;;;;;;;30.38;21.80;;;;;;;26.88;53.85;100860.06;6127868;23;20006;-78
2021/07/25 11:23:35;;;;;;;28.73;22.23;;;;;;;28.19;51.32;100855.75;6128328;23;20018;-80
2021/07/25 11:26:36;;;;;;;38.25;23.38;;;;;;;29.41;47.76;100844.91;6128829;23;20056;-77
2021/07/25 11:29:22;;;;;;;29.77;20.88;;;;;;;29.99;47.19;100844.91;5982456;23;20057;-76
2021/07/25 11:32:32;;;;;;;29.20;21.65;;;;;;;29.13;45.94;100835.78;6118195;23;20433;-81